Time;durP1;ratioP1;P1;durP2;ratioP2;P2;SDS_P1;SDS_P2;PMS_P1;PMS_P2;Temp;Humidity;BMP_temperature;BMP_pressure;BME280_temperature;BME280_humidity;BME280_pressure;Samples;Min_cycle;Max_cycle;Signal;HPM_P1;HPM_P2
2022/01/07 00:01:22;;;;;;;15.52;8.98;;;-1.70;99.90;;;;;;5066574;28;20199;-50
2022/01/07 00:03:51;;;;;;;19.85;9.75;;;-1.70;99.90;;;;;;5066544;28;20319;-52
2022/01/07 00:06:19;;;;;;;14.10;9.25;;;-1.70;99.90;;;;;;5065482;28;20195;-52
2022/01/07 00:08:46;;;;;;;13.45;8.93;;;-1.90;99.90;;;;;;5064199;28;20200;-49
2022/01/07 00:11:14;;;;;;;16.58;8.13;;;-1.80;99.90;;;;;;5063748;28;20199;-47
2022/01/07 00:13:41;;;;;;;22.48;10.30;;;-1.70;99.90;;;;;;5063830;28;20549;-51
2022/01/07 00:16:10;;;;;;;16.05;9.43;;;-1.50;99.90;;;;;;5063503;28;20203;-48
2022/01/07 00:18:41;;;;;;;14.60;9.18;;;-1.60;99.90;;;;;;5065456;28;20221;-49
2022/01/07 00:21:09;;;;;;;13.93;8.82;;;-1.70;99.90;;;;;;5067934;28;20242;-49
2022/01/07 00:23:36;;;;;;;12.45;7.00;;;-1.70;99.90;;;;;;5069079;28;20234;-52
2022/01/07 00:26:04;;;;;;;12.32;9.52;;;-1.60;99.90;;;;;;5066918;28;20207;-50
2022/01/07 00:28:31;;;;;;;10.77;7.57;;;-1.60;99.90;;;;;;5064796;28;20203;-51
2022/01/07 00:30:58;;;;;;;11.02;7.90;;;-1.70;99.90;;;;;;5065106;28;20230;-50
2022/01/07 00:33:26;;;;;;;14.35;7.50;;;-1.70;99.90;;;;;;5064578;28;20219;-48
2022/01/07 00:35:56;;;;;;;14.35;8.07;;;-1.80;99.90;;;;;;5064079;28;20421;-47
2022/01/07 00:38:23;;;;;;;11.00;7.00;;;-1.80;99.90;;;;;;5063509;28;20223;-50
2022/01/07 00:40:51;;;;;;;14.02;7.72;;;-1.80;99.90;;;;;;5063624;28;20477;-51
2022/01/07 00:43:18;;;;;;;12.18;8.98;;;-1.70;99.90;;;;;;5062836;28;20222;-48
2022/01/07 00:45:45;;;;;;;15.75;9.00;;;-1.80;99.90;;;;;;5062858;28;20526;-50
2022/01/07 00:48:12;;;;;;;9.50;6.95;;;-1.70;99.90;;;;;;5062726;28;20203;-48
2022/01/07 00:50:40;;;;;;;16.23;8.10;;;-1.70;99.90;;;;;;5062945;28;20200;-52
2022/01/07 00:53:07;;;;;;;16.48;8.10;;;-1.70;99.90;;;;;;5062646;28;20232;-48
2022/01/07 00:55:36;;;;;;;13.25;8.45;;;-1.60;99.90;;;;;;5062062;28;20522;-47
2022/01/07 00:58:04;;;;;;;11.35;6.68;;;-1.60;99.90;;;;;;5062275;28;20255;-48
2022/01/07 01:00:31;;;;;;;11.40;6.70;;;-1.90;99.90;;;;;;5062272;28;20206;-48
2022/01/07 01:03:00;;;;;;;14.13;6.38;;;-2.00;99.90;;;;;;5062439;28;20242;-47
2022/01/07 01:05:28;;;;;;;11.75;7.30;;;-1.90;99.90;;;;;;5062039;28;20196;-50
2022/01/07 01:07:56;;;;;;;7.80;5.75;;;-1.70;99.90;;;;;;5062188;28;20201;-48
2022/01/07 01:10:27;;;;;;;11.85;7.75;;;-1.70;99.90;;;;;;5061991;28;20199;-52
2022/01/07 01:12:55;;;;;;;12.63;6.55;;;-2.10;99.90;;;;;;5062298;28;20258;-49
2022/01/07 01:15:25;;;;;;;10.00;6.70;;;-2.20;99.90;;;;;;5062392;28;20211;-54
2022/01/07 01:17:55;;;;;;;9.75;5.55;;;-2.40;99.90;;;;;;5063642;28;20219;-47
2022/01/07 01:20:22;;;;;;;12.40;5.90;;;-2.30;99.90;;;;;;5063923;28;20207;-52
2022/01/07 01:22:50;;;;;;;6.20;5.55;;;-2.20;99.90;;;;;;5062457;28;20525;-51
2022/01/07 01:25:17;;;;;;;13.50;6.57;;;-1.90;99.90;;;;;;5062453;28;20657;-46
2022/01/07 01:27:45;;;;;;;10.88;6.65;;;-2.10;99.90;;;;;;5062322;28;20279;-48
2022/01/07 01:30:17;;;;;;;18.55;7.30;;;-2.40;99.90;;;;;;5063258;28;20225;-52
2022/01/07 01:32:47;;;;;;;7.72;5.65;;;-2.30;99.90;;;;;;5062290;28;20448;-49
2022/01/07 01:35:15;;;;;;;10.77;5.40;;;-2.40;99.90;;;;;;5062354;28;20414;-49
2022/01/07 01:37:43;;;;;;;11.73;6.90;;;-2.40;99.90;;;;;;5069940;28;20216;-47
2022/01/07 01:40:11;;;;;;;29.48;16.75;;;-2.40;99.90;;;;;;5069238;28;20241;-53
2022/01/07 01:42:38;;;;;;;22.60;11.27;;;-2.40;99.90;;;;;;5060777;28;20551;-48
2022/01/07 01:45:08;;;;;;;16.42;10.35;;;-2.40;99.90;;;;;;5062482;28;20200;-47
2022/01/07 01:47:37;;;;;;;13.23;8.55;;;-2.20;99.90;;;;;;5063533;28;20203;-50
2022/01/07 01:50:05;;;;;;;11.75;7.20;;;-2.30;99.90;;;;;;5062407;28;20199;-48
2022/01/07 01:52:34;;;;;;;21.20;7.53;;;-2.40;99.90;;;;;;5066221;28;20336;-50
2022/01/07 01:55:01;;;;;;;12.57;6.07;;;-2.50;99.90;;;;;;5068370;28;20538;-48
2022/01/07 01:57:29;;;;;;;5.55;4.97;;;-2.20;99.90;;;;;;5067706;28;20221;-51
2022/01/07 01:59:58;;;;;;;6.28;4.32;;;-2.30;99.90;;;;;;5067973;28;20195;-46
2022/01/07 02:02:25;;;;;;;6.72;4.55;;;-2.30;99.90;;;;;;5065525;28;20445;-58
2022/01/07 02:04:52;;;;;;;5.85;3.38;;;-2.20;99.90;;;;;;5064646;28;20197;-48
2022/01/07 02:07:20;;;;;;;9.07;5.07;;;-2.20;99.90;;;;;;5060651;28;20568;-47
2022/01/07 02:09:47;;;;;;;8.23;4.40;;;-2.20;99.90;;;;;;5061575;28;20251;-48
2022/01/07 02:12:14;;;;;;;5.30;3.80;;;-2.30;99.90;;;;;;5061743;28;20258;-46
2022/01/07 02:14:55;;;;;;;6.53;4.70;;;-2.40;99.90;;;;;;5060892;28;20762;-52
2022/01/07 02:17:25;;;;;;;16.80;5.22;;;-2.50;99.90;;;;;;5060873;28;20210;-51
2022/01/07 02:19:53;;;;;;;6.63;5.05;;;-2.20;99.90;;;;;;5060819;28;20203;-47
2022/01/07 02:22:20;;;;;;;11.88;5.70;;;-2.30;99.90;;;;;;5061249;28;20262;-49
2022/01/07 02:24:48;;;;;;;8.20;4.40;;;-2.10;99.90;;;;;;5060825;28;20199;-53
2022/01/07 02:27:16;;;;;;;10.13;5.75;;;-2.00;99.90;;;;;;5060436;28;20410;-48
2022/01/07 02:29:47;;;;;;;6.82;4.25;;;-2.30;99.90;;;;;;5061102;28;20191;-47
2022/01/07 02:32:15;;;;;;;12.65;5.22;;;-2.20;99.90;;;;;;5063022;28;20286;-47
2022/01/07 02:34:42;;;;;;;13.00;4.70;;;-2.30;99.90;;;;;;5061733;28;20242;-50
2022/01/07 02:37:09;;;;;;;6.30;4.57;;;-2.40;99.90;;;;;;5060987;28;20204;-45
2022/01/07 02:39:36;;;;;;;9.93;4.50;;;-2.50;99.90;;;;;;5061051;28;20223;-46
2022/01/07 02:42:05;;;;;;;9.05;5.97;;;-2.50;99.90;;;;;;5060235;28;20195;-52
2022/01/07 02:44:32;;;;;;;7.25;4.38;;;-2.30;99.90;;;;;;5062039;28;20196;-45
2022/01/07 02:46:59;;;;;;;6.40;3.67;;;-2.00;99.90;;;;;;5062430;28;20219;-49
2022/01/07 02:49:27;;;;;;;10.88;5.10;;;-1.90;99.90;;;;;;5060556;28;20245;-47
2022/01/07 02:51:54;;;;;;;11.00;5.95;;;-2.10;99.90;;;;;;5059904;28;20211;-51
2022/01/07 02:54:21;;;;;;;9.98;4.82;;;-2.10;99.90;;;;;;5059916;28;20200;-47
2022/01/07 02:56:48;;;;;;;10.13;5.40;;;-2.30;99.90;;;;;;5059907;28;20199;-49
2022/01/07 02:59:16;;;;;;;8.98;5.38;;;-2.30;99.90;;;;;;5059878;28;20220;-49
2022/01/07 03:01:44;;;;;;;8.00;5.47;;;-2.50;99.90;;;;;;5060223;28;20219;-49
2022/01/07 03:04:11;;;;;;;14.93;5.13;;;-2.50;99.90;;;;;;5059961;28;20392;-45
2022/01/07 03:06:39;;;;;;;11.23;5.28;;;-2.50;99.90;;;;;;5059993;28;20195;-48
2022/01/07 03:09:06;;;;;;;7.10;5.63;;;-2.50;99.90;;;;;;5059559;28;20387;-50
2022/01/07 03:11:34;;;;;;;7.28;5.05;;;-2.70;99.90;;;;;;5059961;28;20200;-48
2022/01/07 03:14:02;;;;;;;6.78;5.30;;;-2.60;99.90;;;;;;5059878;28;20255;-47
2022/01/07 03:16:29;;;;;;;9.48;5.40;;;-2.50;99.90;;;;;;5063808;28;20234;-46
2022/01/07 03:18:57;;;;;;;11.75;6.22;;;-2.60;99.90;;;;;;5067841;28;20354;-49
2022/01/07 03:21:25;;;;;;;7.70;4.88;;;-2.30;99.90;;;;;;5060845;28;20375;-49
2022/01/07 03:23:52;;;;;;;10.02;6.03;;;-2.50;99.90;;;;;;5059808;28;20215;-45
2022/01/07 03:26:19;;;;;;;9.05;5.85;;;-2.50;99.90;;;;;;5059910;28;20246;-49
2022/01/07 03:28:47;;;;;;;9.70;4.93;;;-2.70;99.90;;;;;;5060145;28;20199;-47
2022/01/07 03:31:15;;;;;;;10.70;6.57;;;-2.70;99.90;;;;;;5059114;28;20199;-46
2022/01/07 03:33:42;;;;;;;10.88;5.22;;;-2.60;99.90;;;;;;5059062;28;20294;-48
2022/01/07 03:36:09;;;;;;;9.70;6.00;;;-2.50;99.90;;;;;;5058232;28;20200;-46
2022/01/07 03:38:36;;;;;;;9.52;6.07;;;-2.60;99.90;;;;;;5060060;28;20227;-50
2022/01/07 03:41:04;;;;;;;8.98;5.65;;;-2.70;99.90;;;;;;5060388;28;20234;-45
2022/01/07 03:43:31;;;;;;;9.48;4.88;;;-2.60;99.90;;;;;;5058744;28;20354;-48
2022/01/07 03:45:58;;;;;;;8.77;5.50;;;-2.80;99.90;;;;;;5059473;28;20242;-47
2022/01/07 03:48:26;;;;;;;9.27;5.65;;;-2.70;99.90;;;;;;5059839;28;20226;-46
2022/01/07 03:50:54;;;;;;;7.57;4.97;;;-2.70;99.90;;;;;;5059726;28;20204;-48
2022/01/07 03:53:24;;;;;;;7.53;4.80;;;-2.70;99.90;;;;;;5059707;28;20250;-50
2022/01/07 03:55:53;;;;;;;12.63;5.07;;;-2.70;99.90;;;;;;5059678;28;20241;-50
2022/01/07 03:58:20;;;;;;;13.23;5.63;;;-2.60;99.90;;;;;;5059202;28;20231;-53
2022/01/07 04:00:47;;;;;;;9.02;4.60;;;-2.80;99.90;;;;;;5059703;28;20202;-46
2022/01/07 04:03:17;;;;;;;8.20;5.95;;;-2.80;99.90;;;;;;5060836;28;20269;-45
2022/01/07 04:05:45;;;;;;;9.90;5.55;;;-2.80;99.90;;;;;;5062422;28;20196;-46
2022/01/07 04:08:12;;;;;;;6.95;5.97;;;-2.80;99.90;;;;;;5062170;28;20199;-50
2022/01/07 04:10:40;;;;;;;11.40;6.82;;;-2.80;99.90;;;;;;5063793;28;20201;-45
2022/01/07 04:13:08;;;;;;;9.48;5.80;;;-2.70;99.90;;;;;;5063941;28;20227;-45
2022/01/07 04:15:35;;;;;;;7.05;4.82;;;-2.80;99.90;;;;;;5064207;28;20241;-49
2022/01/07 04:18:03;;;;;;;8.38;5.50;;;-2.90;99.90;;;;;;5063720;28;20206;-52
2022/01/07 04:20:33;;;;;;;11.13;6.82;;;-3.00;99.90;;;;;;5063825;28;20218;-48
2022/01/07 04:23:02;;;;;;;5.93;5.30;;;-2.90;99.90;;;;;;5063117;28;20226;-51
2022/01/07 04:25:29;;;;;;;7.53;5.80;;;-2.80;99.90;;;;;;5062673;28;20195;-49
2022/01/07 04:28:00;;;;;;;9.10;5.70;;;-2.90;99.90;;;;;;5062950;28;20195;-49
2022/01/07 04:30:31;;;;;;;8.35;6.35;;;-3.00;99.90;;;;;;5062481;28;20203;-49
2022/01/07 04:33:01;;;;;;;13.05;5.93;;;-3.00;99.90;;;;;;5063027;28;20216;-49
2022/01/07 04:35:29;;;;;;;9.45;6.55;;;-2.90;99.90;;;;;;5062572;28;20195;-49
2022/01/07 04:37:57;;;;;;;9.65;5.72;;;-2.90;99.90;;;;;;5062949;28;20202;-45
2022/01/07 04:40:27;;;;;;;12.55;7.35;;;-3.00;99.90;;;;;;5063276;28;20624;-48
2022/01/07 04:42:54;;;;;;;9.32;6.30;;;-3.00;99.90;;;;;;5063341;28;20219;-46
2022/01/07 04:45:22;;;;;;;10.07;5.43;;;-2.90;99.90;;;;;;5063487;28;20200;-47
2022/01/07 04:47:49;;;;;;;6.95;5.50;;;-2.90;99.90;;;;;;5064894;28;20211;-50
2022/01/07 04:50:19;;;;;;;9.98;6.60;;;-2.90;99.90;;;;;;5063740;28;20196;-48
2022/01/07 04:52:47;;;;;;;11.95;6.10;;;-2.90;99.90;;;;;;5063310;28;20219;-48
2022/01/07 04:55:24;;;;;;;10.70;6.72;;;-2.90;99.90;;;;;;5063310;28;20204;-50
2022/01/07 04:57:51;;;;;;;7.25;5.82;;;-2.80;99.90;;;;;;5065175;28;20297;-46
2022/01/07 05:00:20;;;;;;;12.02;7.28;;;-2.90;99.90;;;;;;5062723;28;20223;-49
2022/01/07 05:02:48;;;;;;;15.68;7.45;;;-2.80;99.90;;;;;;5062493;28;20362;-47
2022/01/07 05:05:15;;;;;;;16.98;7.63;;;-2.90;99.90;;;;;;5062779;28;20197;-46
2022/01/07 05:07:43;;;;;;;11.85;8.40;;;-2.80;99.90;;;;;;5062830;28;20262;-48
2022/01/07 05:10:12;;;;;;;10.20;6.88;;;-2.80;99.90;;;;;;5063074;28;20245;-45
2022/01/07 05:12:42;;;;;;;12.10;7.60;;;-2.70;99.90;;;;;;5067859;28;20258;-50
2022/01/07 05:15:11;;;;;;;18.58;7.88;;;-2.80;99.90;;;;;;5073177;28;20233;-52
2022/01/07 05:17:38;;;;;;;12.10;7.38;;;-2.80;99.90;;;;;;5064955;28;20234;-47
2022/01/07 05:20:06;;;;;;;11.40;6.18;;;-2.50;99.90;;;;;;5066147;28;20235;-50
2022/01/07 05:22:34;;;;;;;12.00;7.28;;;-2.50;99.90;;;;;;5069103;28;20274;-54
2022/01/07 05:25:03;;;;;;;10.88;5.72;;;-2.60;99.90;;;;;;5071180;28;20194;-52
2022/01/07 05:27:30;;;;;;;11.23;8.55;;;-2.60;99.90;;;;;;5052583;28;20195;-52
2022/01/07 05:29:57;;;;;;;16.23;8.85;;;-2.40;99.90;;;;;;5070122;28;20259;-49
2022/01/07 05:32:25;;;;;;;11.80;7.35;;;-2.70;99.90;;;;;;5063618;28;20234;-48
2022/01/07 05:34:52;;;;;;;11.77;7.47;;;-2.80;99.90;;;;;;5062103;28;20200;-45
2022/01/07 05:37:19;;;;;;;12.40;8.63;;;-2.80;99.90;;;;;;5061878;28;20206;-46
2022/01/07 05:39:46;;;;;;;13.52;8.43;;;-2.60;99.90;;;;;;5060159;28;20437;-44
2022/01/07 05:42:14;;;;;;;11.23;7.13;;;-2.50;99.90;;;;;;5064225;28;20594;-46
2022/01/07 05:44:41;;;;;;;9.90;7.38;;;-2.30;99.90;;;;;;5056121;28;20203;-53
2022/01/07 05:47:08;;;;;;;10.52;6.22;;;-2.20;99.90;;;;;;5047685;28;20202;-49
2022/01/07 05:49:36;;;;;;;11.57;7.65;;;-2.30;99.90;;;;;;5061512;28;20210;-50
2022/01/07 05:52:04;;;;;;;12.45;6.65;;;-2.30;99.90;;;;;;5061110;28;20571;-46
2022/01/07 05:54:33;;;;;;;13.68;7.20;;;-2.10;99.90;;;;;;5059823;28;20665;-46
2022/01/07 05:57:00;;;;;;;9.88;7.13;;;-2.10;99.90;;;;;;5044020;28;20219;-45
2022/01/07 05:59:33;;;;;;;11.90;6.88;;;-2.20;99.90;;;;;;5045720;28;20248;-51
2022/01/07 06:02:00;;;;;;;10.02;6.78;;;-2.10;99.90;;;;;;5030018;28;20199;-51
2022/01/07 06:04:28;;;;;;;12.65;8.00;;;-2.40;99.90;;;;;;5063221;28;20506;-51
2022/01/07 06:06:55;;;;;;;8.00;6.90;;;-2.40;99.90;;;;;;5062688;28;20255;-47
2022/01/07 06:09:23;;;;;;;8.10;6.72;;;-2.40;99.90;;;;;;5060749;28;20266;-48
2022/01/07 06:11:50;;;;;;;13.65;7.47;;;-2.30;99.90;;;;;;5062269;28;20206;-48
2022/01/07 06:14:17;;;;;;;8.88;7.15;;;-2.40;99.90;;;;;;5063286;28;20203;-51
2022/01/07 06:16:45;;;;;;;13.80;8.30;;;-2.40;99.90;;;;;;5053353;28;20238;-48
2022/01/07 06:19:13;;;;;;;16.90;8.35;;;-2.60;99.90;;;;;;5046829;28;20263;-48
2022/01/07 06:21:40;;;;;;;14.43;7.80;;;-2.70;99.90;;;;;;5029645;28;20200;-46
2022/01/07 06:24:07;;;;;;;11.90;8.48;;;-2.60;99.90;;;;;;5030375;28;20216;-47
2022/01/07 06:26:34;;;;;;;11.07;7.40;;;-2.60;99.90;;;;;;5048204;28;20268;-53
2022/01/07 06:29:02;;;;;;;14.35;9.25;;;-2.80;99.90;;;;;;5046154;28;20200;-49
2022/01/07 06:31:29;;;;;;;14.02;8.35;;;-2.80;99.90;;;;;;5045740;28;20199;-53
2022/01/07 06:33:58;;;;;;;10.73;7.13;;;-2.40;99.90;;;;;;5042465;28;20229;-48
2022/01/07 06:36:26;;;;;;;13.10;8.88;;;-2.50;99.90;;;;;;5044892;28;20200;-49
2022/01/07 06:38:54;;;;;;;10.23;8.43;;;-2.50;99.90;;;;;;5050867;28;20293;-47
2022/01/07 06:41:21;;;;;;;8.32;6.88;;;-2.30;99.90;;;;;;5045290;28;20219;-52
2022/01/07 06:43:49;;;;;;;11.77;8.27;;;-2.50;99.90;;;;;;5042769;28;20562;-48
2022/01/07 06:46:16;;;;;;;9.00;6.93;;;-2.60;99.90;;;;;;5043539;28;20197;-49
2022/01/07 06:48:47;;;;;;;9.95;6.95;;;-2.50;99.90;;;;;;5042737;28;20267;-50
2022/01/07 06:51:14;;;;;;;12.82;8.13;;;-2.40;99.90;;;;;;5041223;28;20196;-49
2022/01/07 06:53:41;;;;;;;11.10;10.00;;;-2.50;99.90;;;;;;5041979;28;20250;-46
2022/01/07 06:56:09;;;;;;;10.35;7.65;;;-2.40;99.90;;;;;;5043686;28;20204;-52
2022/01/07 06:58:36;;;;;;;20.73;8.68;;;-2.20;99.90;;;;;;5046807;28;20203;-46
2022/01/07 07:01:08;;;;;;;10.75;6.95;;;-2.10;99.90;;;;;;5042742;28;20208;-47
2022/01/07 07:03:35;;;;;;;14.90;7.50;;;-2.30;99.90;;;;;;5043159;28;20589;-50
2022/01/07 07:06:02;;;;;;;13.43;7.75;;;-2.40;99.90;;;;;;5044742;28;20213;-48
2022/01/07 07:08:30;;;;;;;13.55;9.07;;;-2.40;99.90;;;;;;5044916;28;20196;-47
2022/01/07 07:10:57;;;;;;;11.75;7.63;;;-2.50;99.90;;;;;;5042321;28;20656;-45
2022/01/07 07:13:24;;;;;;;10.68;7.90;;;-2.40;99.90;;;;;;5043470;28;20287;-47
2022/01/07 07:15:52;;;;;;;9.32;6.97;;;-2.30;99.90;;;;;;5042840;28;20207;-50
2022/01/07 07:18:19;;;;;;;8.52;7.15;;;-2.30;99.90;;;;;;5042869;28;20200;-47
2022/01/07 07:20:47;;;;;;;10.23;6.90;;;-2.30;99.90;;;;;;5045577;28;20262;-49
2022/01/07 07:23:14;;;;;;;10.48;7.22;;;-2.10;99.90;;;;;;5041855;28;20216;-45
2022/01/07 07:25:41;;;;;;;13.90;8.35;;;-2.00;99.90;;;;;;5044765;28;20605;-47
2022/01/07 07:28:09;;;;;;;12.48;7.63;;;-1.90;99.90;;;;;;5050019;28;20196;-46
2022/01/07 07:30:39;;;;;;;8.18;5.97;;;-1.70;99.90;;;;;;5047112;28;20200;-49
2022/01/07 07:38:35;;;;;;;8.93;6.15;;;-1.50;99.90;;;;;;5044858;28;20234;-51
2022/01/07 07:41:03;;;;;;;7.45;6.55;;;-1.40;99.90;;;;;;5045813;28;20223;-50
2022/01/07 07:43:29;;;;;;;6.03;4.93;;;-1.30;99.90;;;;;;5052514;28;20386;-45
2022/01/07 07:45:57;;;;;;;8.45;6.15;;;-1.10;99.90;;;;;;5045288;28;20246;-46
2022/01/07 07:48:24;;;;;;;7.53;5.85;;;-1.00;99.90;;;;;;5047393;28;20291;-50
2022/01/07 07:50:52;;;;;;;8.48;6.72;;;-0.90;99.90;;;;;;5045155;28;20254;-47
2022/01/07 07:53:19;;;;;;;7.22;4.80;;;-0.80;99.90;;;;;;5050032;28;20558;-47
2022/01/07 07:55:52;;;;;;;7.85;6.90;;;-0.80;99.90;;;;;;5045060;28;20245;-48
2022/01/07 07:58:21;;;;;;;16.40;8.05;;;-0.70;99.90;;;;;;5044981;28;20204;-51
2022/01/07 08:00:49;;;;;;;10.68;6.43;;;-0.50;99.90;;;;;;5060748;28;20223;-48
2022/01/07 08:03:17;;;;;;;12.95;7.05;;;-0.40;99.90;;;;;;5055015;28;20239;-48
2022/01/07 08:05:45;;;;;;;10.48;7.80;;;-0.40;99.90;;;;;;5048979;28;20208;-43
2022/01/07 08:08:12;;;;;;;13.23;7.13;;;-0.30;99.90;;;;;;5046897;28;20443;-48
2022/01/07 08:10:46;;;;;;;7.57;6.78;;;-0.40;99.90;;;;;;5055808;28;20446;-48
2022/01/07 08:13:27;;;;;;;8.13;5.28;;;-0.30;99.90;;;;;;5050984;28;20571;-48
2022/01/07 08:15:59;;;;;;;9.35;7.35;;;-0.40;99.90;;;;;;5049195;28;20204;-49
2022/01/07 08:18:34;;;;;;;6.03;5.43;;;-0.30;99.90;;;;;;5048218;28;20239;-53
2022/01/07 08:21:08;;;;;;;7.90;5.30;;;-0.20;99.90;;;;;;5045783;28;20236;-47
2022/01/07 08:23:38;;;;;;;21.45;10.15;;;0.00;99.90;;;;;;5046249;28;20273;-45
2022/01/07 08:26:09;;;;;;;14.45;9.65;;;0.10;99.90;;;;;;5047226;28;20207;-47
2022/01/07 08:28:43;;;;;;;6.25;5.43;;;0.10;99.90;;;;;;5046937;28;20514;-48
2022/01/07 08:36:28;;;;;;;8.88;4.97;;;0.10;99.90;;;;;;5049142;28;20208;-47
2022/01/07 08:38:57;;;;;;;7.82;5.30;;;0.20;99.90;;;;;;5044338;28;20211;-50
2022/01/07 08:41:27;;;;;;;6.43;5.00;;;0.30;99.90;;;;;;5047768;28;20224;-46
2022/01/07 08:43:54;;;;;;;7.03;5.75;;;0.40;99.90;;;;;;5044184;28;20228;-45
2022/01/07 08:46:22;;;;;;;9.60;5.05;;;0.40;99.90;;;;;;5044606;28;20208;-47
2022/01/07 08:48:49;;;;;;;10.10;5.40;;;0.50;99.90;;;;;;5044536;28;20220;-47
2022/01/07 08:51:17;;;;;;;6.75;4.82;;;0.40;99.90;;;;;;5044406;28;20200;-49
2022/01/07 08:53:50;;;;;;;10.75;6.38;;;0.50;99.90;;;;;;5043456;28;20626;-44
2022/01/07 08:56:17;;;;;;;5.75;4.18;;;0.40;99.90;;;;;;5044290;28;20267;-48
2022/01/07 08:58:45;;;;;;;7.80;5.20;;;0.40;99.90;;;;;;5050448;28;20211;-50
2022/01/07 09:01:12;;;;;;;7.57;5.60;;;0.30;99.90;;;;;;5044548;28;20224;-48
2022/01/07 09:03:39;;;;;;;9.18;5.80;;;0.30;99.90;;;;;;5044607;28;20406;-47
2022/01/07 09:06:06;;;;;;;7.13;5.40;;;0.50;99.90;;;;;;5046733;28;20231;-46
2022/01/07 09:08:34;;;;;;;12.98;6.55;;;0.50;99.90;;;;;;5046106;28;20197;-46
2022/01/07 09:11:01;;;;;;;9.57;6.20;;;0.30;99.90;;;;;;5044303;28;20258;-49
2022/01/07 09:13:28;;;;;;;8.52;6.50;;;0.20;99.90;;;;;;5044665;28;20604;-46
2022/01/07 09:15:55;;;;;;;4.97;3.78;;;0.30;99.90;;;;;;5043781;28;20208;-46
2022/01/07 09:18:23;;;;;;;10.27;5.50;;;0.30;99.90;;;;;;5044512;28;20200;-48
2022/01/07 09:20:50;;;;;;;8.40;5.25;;;0.20;99.90;;;;;;5042606;28;20230;-46
2022/01/07 09:23:17;;;;;;;6.40;5.13;;;0.30;99.90;;;;;;5043168;28;20335;-49
2022/01/07 09:25:45;;;;;;;7.18;4.85;;;0.40;99.90;;;;;;5045429;28;20204;-48
2022/01/07 09:28:12;;;;;;;11.20;5.93;;;0.20;99.90;;;;;;5045324;28;20196;-47
2022/01/07 09:30:44;;;;;;;9.00;4.82;;;0.40;99.90;;;;;;5045452;28;20200;-48
2022/01/07 09:33:11;;;;;;;10.82;5.50;;;0.50;99.90;;;;;;5049043;28;20342;-47
2022/01/07 09:35:39;;;;;;;10.30;7.03;;;0.60;99.90;;;;;;5045239;28;20490;-46
2022/01/07 09:38:06;;;;;;;16.70;10.80;;;0.60;99.90;;;;;;5042680;28;20212;-46
2022/01/07 09:40:33;;;;;;;12.73;7.35;;;0.60;99.90;;;;;;5045793;28;20288;-45
2022/01/07 09:43:08;;;;;;;34.13;15.52;;;0.60;99.90;;;;;;5047443;28;20220;-48
2022/01/07 09:45:37;;;;;;;19.15;8.73;;;0.80;99.90;;;;;;5046064;28;20255;-49
2022/01/07 09:48:05;;;;;;;15.00;7.93;;;0.70;99.90;;;;;;5050803;28;20387;-46
2022/01/07 09:50:33;;;;;;;15.15;6.47;;;0.90;99.90;;;;;;5047036;28;20749;-45
2022/01/07 09:53:14;;;;;;;28.10;10.60;;;1.10;99.90;;;;;;5045524;28;20232;-45
2022/01/07 09:55:42;;;;;;;18.35;6.82;;;1.20;99.90;;;;;;5045929;28;20206;-46
2022/01/07 09:58:12;;;;;;;12.13;6.13;;;1.20;99.90;;;;;;5052236;28;20262;-48
2022/01/07 10:00:45;;;;;;;13.20;6.43;;;1.40;99.90;;;;;;5047413;28;20219;-44
2022/01/07 10:03:17;;;;;;;7.28;4.80;;;1.40;99.90;;;;;;5046750;28;20220;-46
2022/01/07 10:05:49;;;;;;;8.45;4.85;;;1.50;99.90;;;;;;5042253;28;20203;-46
2022/01/07 10:08:21;;;;;;;7.00;4.13;;;1.50;99.90;;;;;;5042942;28;20431;-47
2022/01/07 10:11:14;;;;;;;10.88;5.03;;;1.50;99.90;;;;;;5042919;28;20223;-47
2022/01/07 10:13:47;;;;;;;10.40;5.70;;;1.50;99.90;;;;;;5042244;28;20426;-49
2022/01/07 10:16:22;;;;;;;16.10;6.40;;;1.60;99.90;;;;;;5047370;28;20219;-47
2022/01/07 10:18:51;;;;;;;8.20;4.50;;;1.60;99.90;;;;;;5046247;28;20242;-48
2022/01/07 10:21:21;;;;;;;7.15;3.95;;;1.70;99.90;;;;;;5046825;28;20224;-47
2022/01/07 10:23:48;;;;;;;10.00;5.60;;;1.70;99.90;;;;;;5044110;28;20423;-46
2022/01/07 10:26:22;;;;;;;5.10;3.08;;;1.80;99.90;;;;;;5042325;28;20202;-45
2022/01/07 10:28:51;;;;;;;8.07;4.68;;;1.90;99.90;;;;;;5042042;28;20470;-48
2022/01/07 10:31:24;;;;;;;10.88;4.90;;;2.10;99.90;;;;;;5042559;28;20200;-51
2022/01/07 10:33:53;;;;;;;6.57;4.15;;;2.10;99.90;;;;;;5043536;28;20443;-47
2022/01/07 10:36:23;;;;;;;8.35;4.75;;;2.20;99.90;;;;;;5053712;28;20216;-50
2022/01/07 10:38:57;;;;;;;5.03;3.60;;;2.20;99.90;;;;;;5060273;28;20408;-47
2022/01/07 10:41:26;;;;;;;7.85;3.70;;;2.20;99.90;;;;;;5060224;28;20227;-49
2022/01/07 10:44:01;;;;;;;7.03;4.10;;;2.30;99.90;;;;;;5059692;28;20230;-47
2022/01/07 10:46:31;;;;;;;6.72;4.20;;;2.30;99.90;;;;;;5042840;28;20402;-47
2022/01/07 10:49:00;;;;;;;5.45;3.65;;;2.20;99.90;;;;;;5041123;28;20247;-49
2022/01/07 10:51:38;;;;;;;7.13;3.78;;;2.20;99.90;;;;;;5041102;28;20472;-47
2022/01/07 10:54:10;;;;;;;7.40;3.47;;;2.20;99.90;;;;;;5046323;28;20220;-45
2022/01/07 10:56:43;;;;;;;7.95;3.33;;;2.00;99.90;;;;;;5042264;28;20291;-48
2022/01/07 10:59:15;;;;;;;4.50;2.88;;;1.90;99.90;;;;;;5040767;28;20515;-47
2022/01/07 11:01:45;;;;;;;6.85;5.75;;;1.70;99.90;;;;;;5043399;28;20234;-46
2022/01/07 11:04:17;;;;;;;8.98;3.65;;;1.70;99.90;;;;;;5040123;28;20247;-50
2022/01/07 11:06:46;;;;;;;4.90;3.45;;;1.60;99.90;;;;;;5045557;28;20204;-47
2022/01/07 11:09:16;;;;;;;7.60;3.08;;;1.70;99.90;;;;;;5043040;28;20208;-46
2022/01/07 11:11:51;;;;;;;5.55;4.07;;;1.70;99.90;;;;;;5043753;28;20242;-47
2022/01/07 11:14:25;;;;;;;4.00;3.20;;;1.70;99.90;;;;;;5040230;28;20751;-48
2022/01/07 11:16:57;;;;;;;5.35;3.20;;;1.70;99.90;;;;;;5039543;28;20399;-50
2022/01/07 11:19:32;;;;;;;4.25;3.63;;;2.00;99.90;;;;;;5043519;28;20275;-45
2022/01/07 11:22:00;;;;;;;6.00;3.75;;;2.00;99.90;;;;;;5040513;28;20239;-45
2022/01/07 11:24:38;;;;;;;4.70;3.03;;;2.00;99.90;;;;;;5044128;28;20200;-50
2022/01/07 11:27:07;;;;;;;5.47;3.58;;;2.00;99.90;;;;;;5057658;28;20202;-46
2022/01/07 11:29:44;;;;;;;5.60;3.63;;;2.20;99.90;;;;;;5058203;28;20203;-46
2022/01/07 11:32:26;;;;;;;16.35;6.05;;;2.40;99.90;;;;;;5059018;28;20429;-49
2022/01/07 11:35:20;;;;;;;6.45;3.42;;;2.60;99.90;;;;;;5052032;28;20490;-46
2022/01/07 11:37:59;;;;;;;7.82;4.75;;;2.60;99.90;;;;;;5053085;28;20196;-48
2022/01/07 11:40:32;;;;;;;6.45;4.00;;;2.60;99.90;;;;;;5049848;28;20310;-50
2022/01/07 11:43:04;;;;;;;13.75;5.95;;;2.50;99.90;;;;;;5058661;28;20295;-50
2022/01/07 11:45:34;;;;;;;14.35;8.50;;;2.70;99.90;;;;;;5054473;28;20204;-47
2022/01/07 11:48:12;;;;;;;16.35;7.40;;;2.90;99.90;;;;;;5059344;28;20197;-47
2022/01/07 11:50:55;;;;;;;7.70;5.55;;;3.00;99.90;;;;;;5058846;28;20261;-47
2022/01/07 11:53:23;;;;;;;10.35;4.65;;;3.00;99.90;;;;;;5058843;28;20229;-50
2022/01/07 11:55:50;;;;;;;9.45;4.32;;;3.10;99.90;;;;;;5057860;28;20223;-47
2022/01/07 11:58:18;;;;;;;8.18;3.75;;;3.40;99.90;;;;;;5058226;28;20200;-46
2022/01/07 12:00:56;;;;;;;8.70;4.88;;;3.70;99.90;;;;;;5058954;28;20224;-49
2022/01/07 12:03:37;;;;;;;7.53;3.75;;;3.70;99.90;;;;;;5060276;28;20221;-48
2022/01/07 12:06:23;;;;;;;10.73;5.68;;;3.70;99.90;;;;;;5059498;28;20691;-48
2022/01/07 12:09:16;;;;;;;8.73;5.10;;;3.70;99.90;;;;;;5059595;28;20215;-47
2022/01/07 12:12:05;;;;;;;5.55;4.05;;;3.60;99.90;;;;;;5058240;28;20280;-47
2022/01/07 12:14:37;;;;;;;10.75;4.85;;;3.70;99.90;;;;;;5058242;28;20277;-49
2022/01/07 12:17:09;;;;;;;6.00;3.75;;;3.40;99.90;;;;;;5058094;28;20745;-47
2022/01/07 12:19:36;;;;;;;10.25;4.22;;;3.20;99.90;;;;;;5058677;28;20285;-47
2022/01/07 12:22:11;;;;;;;4.05;3.35;;;3.30;99.90;;;;;;5056806;28;20221;-46
2022/01/07 12:24:38;;;;;;;10.40;4.32;;;3.50;99.90;;;;;;5057085;28;20229;-49
2022/01/07 12:27:16;;;;;;;11.32;4.70;;;4.00;99.90;;;;;;5058419;28;20204;-48
2022/01/07 12:29:46;;;;;;;9.07;4.18;;;4.20;99.90;;;;;;5062488;28;20204;-44
2022/01/07 12:32:16;;;;;;;8.60;4.88;;;4.10;99.90;;;;;;5062191;28;20388;-50
2022/01/07 12:34:45;;;;;;;13.02;6.78;;;3.70;99.90;;;;;;5061125;28;20213;-47
2022/01/07 12:37:19;;;;;;;15.30;8.18;;;3.70;99.90;;;;;;5061516;28;20266;-49
2022/01/07 12:39:52;;;;;;;7.93;4.72;;;3.70;99.90;;;;;;5061157;28;20212;-48
2022/01/07 12:42:20;;;;;;;12.98;5.95;;;3.70;99.90;;;;;;5065716;28;20423;-49
2022/01/07 12:44:54;;;;;;;9.60;5.65;;;3.60;99.90;;;;;;5064640;28;20272;-49
2022/01/07 12:47:24;;;;;;;12.00;6.32;;;3.60;99.90;;;;;;5062065;28;20243;-50
2022/01/07 12:49:55;;;;;;;13.75;5.15;;;3.60;99.90;;;;;;5063469;28;20276;-46
2022/01/07 12:52:29;;;;;;;9.47;4.50;;;3.50;99.90;;;;;;5017395;28;1664295;-50
2022/01/07 12:55:11;;;;;;;5.72;3.40;;;3.70;99.90;;;;;;5057577;28;20235;-55
2022/01/07 12:57:46;;;;;;;3.22;2.92;;;3.60;99.90;;;;;;5061677;28;20529;-47
2022/01/07 13:00:22;;;;;;;6.10;4.10;;;3.60;99.90;;;;;;5060370;28;20234;-50
2022/01/07 13:02:55;;;;;;;2.75;2.50;;;3.60;99.90;;;;;;5055219;28;20227;-50
2022/01/07 13:05:31;;;;;;;5.60;4.05;;;3.50;99.90;;;;;;5061761;28;20395;-47
2022/01/07 13:08:00;;;;;;;7.22;4.25;;;3.50;99.90;;;;;;5061845;28;20259;-48